Las Vegas, NM (87701)

9:43 AM MST on February 09, 2016 (GMT -0700)
North 8th. Street Extension | | Change Station
CLOSE
Current Station
Personal Weather Station
Location: Las Vegas, NM
Elevation: 6526 ft
Nearby Weather Stations

Elev 6526 ft 35.61 °N, 105.23 °W | Updated 0 second ago

Clear
Clear
41.0 °F
Feels Like 39 °F
N
3.6
Wind Variable Wind from WSW
Gusts 4.7 mph

Today
High -- | Low -- °F
--% Chance of Precip.
Yesterday
High -- | Low -- °F
Precip. -- in
Pressure 30.39 in
Visibility 10.0 miles
Clouds Clear
Windchill 39 °F
Dew Point 23 °F
Humidity 48%
Rainfall 0.00 in
Snow Depth Not available.
6:54 AM 5:36 PM
New Moon, 2% visible
METAR KLVS 091553Z AUTO 05005KT 10SM CLR 02/M07 A3040 RMK AO2 SLP291 T00171072
Pressure 30.39 in
Visibility 10.0 miles
Clouds Clear
Windchill 39 °F
Dew Point 23 °F
Humidity 48%
Rainfall 0.00 in
Snow Depth Not available.
6:54 AM 5:36 PM
New Moon, 2% visible
METAR KLVS 091553Z AUTO 05005KT 10SM CLR 02/M07 A3040 RMK AO2 SLP291 T00171072

10-Day Weather Forecast

Almanac

Astronomy

Feb. 09, 2016 Rise Set
Actual Time
Civil Twilight
Nautical Twilight
Astronomical Twilight
Moon
Length of Visible Light
Length of Day
Tomorrow will be .
, % of the Moon is Illuminated

Today's Extremes

State Highs State Lows

Community

WunderPhotos

Upload Photos

1,891,631 photos uploaded!

WunderBlog® & News

Nearby

Air Quality

  Air Quality AQ Index Pollutant
Not available.

Snow Depth

Station Depth Elevation

Earthquake Activity

City Distance Mag. Time & Date
Minimum magnitude displayed is 2.5.

Coastal Water Temperatures

Place Temperature

Stations

Nearby Weather Stations

Station Location Temp. Windchill Dew Point Humidity Wind Precip. Elev Updated Type
                   

Watches & Warnings

There are currently no watches in effect.